CGG60 KAIZ-KROG
Flight info
| Callsign | CGG60 |
|---|---|
| Flight time | N/A |
| Altitude | 40000 |
| Route | NASHE/N0414F390 DROOP |
| Aircraft | HDJT/L-SABDGRWY/H |
Departure
| Time | 2026-05-06 19:46 |
|---|---|
| Airport | Lee C Fine Memorial Airport (KAIZ) |
Arrival
| Time | N/A |
|---|---|
| Airport | Rogers Municipal Airport-Carter Field (KROG) |
| Time | Latitude | Longitude | Altitude | Speed | Heading |
|---|---|---|---|---|---|
| 2026-05-06 19:39 | 38.09971 | -92.54833 | 866 ft | 0 kts | 124° |
| 2026-05-06 19:42 | 38.09970 | -92.54829 | 866 ft | 3 kts | 97° |
| 2026-05-06 19:43 | 38.09967 | -92.54794 | 855 ft | 4 kts | 153° |
| 2026-05-06 19:43 | 38.09874 | -92.54860 | 863 ft | 18 kts | 211° |
| 2026-05-06 19:43 | 38.09781 | -92.54952 | 868 ft | 15 kts | 219° |
| 2026-05-06 19:43 | 38.09698 | -92.55033 | 862 ft | 15 kts | 218° |
| 2026-05-06 19:44 | 38.09619 | -92.55108 | 865 ft | 14 kts | 219° |
| 2026-05-06 19:44 | 38.09546 | -92.55180 | 865 ft | 13 kts | 218° |
| 2026-05-06 19:44 | 38.09483 | -92.55239 | 861 ft | 10 kts | 216° |
| 2026-05-06 19:44 | 38.09424 | -92.55285 | 860 ft | 9 kts | 184° |
| 2026-05-06 19:45 | 38.09381 | -92.55239 | 864 ft | 8 kts | 123° |
| 2026-05-06 19:45 | 38.09368 | -92.55177 | 856 ft | 8 kts | 56° |
| 2026-05-06 19:45 | 38.09628 | -92.54925 | 865 ft | 89 kts | 37° |
| 2026-05-06 19:45 | 38.10307 | -92.54267 | 933 ft | 144 kts | 37° |
| 2026-05-06 19:46 | 38.11143 | -92.53457 | 1343 ft | 159 kts | 34° |
| 2026-05-06 19:46 | 38.12211 | -92.52998 | 1876 ft | 173 kts | 0° |
| 2026-05-06 19:46 | 38.13470 | -92.53355 | 2324 ft | 195 kts | 336° |
| 2026-05-06 19:46 | 38.14678 | -92.54190 | 3102 ft | 198 kts | 333° |
| 2026-05-06 19:47 | 38.15758 | -92.55158 | 4133 ft | 190 kts | 307° |
| 2026-05-06 19:47 | 38.16370 | -92.56820 | 4328 ft | 229 kts | 281° |
| 2026-05-06 19:47 | 38.16144 | -92.58770 | 5341 ft | 224 kts | 252° |
| 2026-05-06 19:47 | 38.15500 | -92.60602 | 6115 ft | 230 kts | 248° |
| 2026-05-06 19:48 | 38.14807 | -92.62441 | 6961 ft | 229 kts | 248° |
| 2026-05-06 19:48 | 38.14142 | -92.64256 | 7960 ft | 223 kts | 248° |
| 2026-05-06 19:48 | 38.13504 | -92.66019 | 8825 ft | 222 kts | 248° |
| 2026-05-06 19:48 | 38.12860 | -92.67791 | 9724 ft | 221 kts | 247° |
| 2026-05-06 19:49 | 38.12212 | -92.69566 | 10507 ft | 220 kts | 248° |
| 2026-05-06 19:49 | 38.11579 | -92.71300 | 11417 ft | 213 kts | 248° |
| 2026-05-06 19:49 | 38.10966 | -92.72981 | 12304 ft | 207 kts | 248° |
| 2026-05-06 19:49 | 38.10368 | -92.74622 | 13227 ft | 202 kts | 249° |
| 2026-05-06 19:50 | 38.09783 | -92.76221 | 14126 ft | 197 kts | 249° |
| 2026-05-06 19:50 | 38.09208 | -92.77795 | 14854 ft | 197 kts | 249° |
| 2026-05-06 19:50 | 38.08633 | -92.79373 | 15573 ft | 197 kts | 249° |
| 2026-05-06 19:50 | 38.08058 | -92.80948 | 16310 ft | 197 kts | 249° |
| 2026-05-06 19:51 | 38.07481 | -92.82523 | 17040 ft | 197 kts | 249° |
| 2026-05-06 19:51 | 38.06903 | -92.84103 | 17777 ft | 198 kts | 249° |
| 2026-05-06 19:51 | 38.06324 | -92.85683 | 18526 ft | 198 kts | 248° |
| 2026-05-06 19:51 | 38.05742 | -92.87272 | 19173 ft | 198 kts | 248° |
| 2026-05-06 19:52 | 38.05171 | -92.88830 | 19847 ft | 197 kts | 248° |
| 2026-05-06 19:52 | 38.04594 | -92.90402 | 20535 ft | 196 kts | 248° |
| 2026-05-06 19:52 | 38.04020 | -92.91971 | 21234 ft | 196 kts | 247° |
| 2026-05-06 19:52 | 38.03444 | -92.93540 | 21941 ft | 196 kts | 247° |
| 2026-05-06 19:53 | 38.02869 | -92.95105 | 22660 ft | 195 kts | 246° |
| 2026-05-06 19:53 | 38.02294 | -92.96668 | 23380 ft | 196 kts | 246° |
| 2026-05-06 19:53 | 38.01691 | -92.98226 | 23968 ft | 197 kts | 240° |
| 2026-05-06 19:53 | 38.01037 | -92.99749 | 24503 ft | 197 kts | 248° |
| 2026-05-06 19:54 | 38.00544 | -93.01366 | 25053 ft | 197 kts | 248° |
| 2026-05-06 19:54 | 37.99995 | -93.02955 | 25601 ft | 196 kts | 246° |
| 2026-05-06 19:54 | 37.99417 | -93.04501 | 26154 ft | 196 kts | 246° |
| 2026-05-06 19:54 | 37.98834 | -93.06066 | 26673 ft | 197 kts | 246° |
| 2026-05-06 19:55 | 37.98256 | -93.07635 | 27180 ft | 197 kts | 246° |
| 2026-05-06 19:55 | 37.97676 | -93.09208 | 27689 ft | 197 kts | 246° |
| 2026-05-06 19:55 | 37.97094 | -93.10784 | 28176 ft | 197 kts | 246° |
| 2026-05-06 19:55 | 37.96512 | -93.12359 | 28648 ft | 198 kts | 246° |
| 2026-05-06 19:56 | 37.95929 | -93.13937 | 29112 ft | 198 kts | 246° |
| 2026-05-06 19:56 | 37.95342 | -93.15525 | 29538 ft | 199 kts | 246° |
| 2026-05-06 19:56 | 37.94754 | -93.17115 | 29996 ft | 199 kts | 246° |
| 2026-05-06 19:56 | 37.94165 | -93.18704 | 30377 ft | 200 kts | 246° |
| 2026-05-06 19:57 | 37.93575 | -93.20299 | 30724 ft | 200 kts | 246° |
| 2026-05-06 19:57 | 37.92994 | -93.21866 | 31137 ft | 198 kts | 246° |
| 2026-05-06 19:57 | 37.92412 | -93.23435 | 31527 ft | 196 kts | 246° |
| 2026-05-06 19:57 | 37.91833 | -93.24998 | 31916 ft | 195 kts | 246° |
| 2026-05-06 19:58 | 37.91259 | -93.26540 | 32308 ft | 193 kts | 246° |
| 2026-05-06 19:58 | 37.90690 | -93.28076 | 32621 ft | 192 kts | 246° |
| 2026-05-06 19:58 | 37.90122 | -93.29605 | 32955 ft | 191 kts | 246° |
| 2026-05-06 19:58 | 37.89556 | -93.31126 | 33316 ft | 191 kts | 246° |
| 2026-05-06 19:59 | 37.88994 | -93.32638 | 33684 ft | 189 kts | 246° |
| 2026-05-06 19:59 | 37.88435 | -93.34141 | 34049 ft | 187 kts | 246° |
| 2026-05-06 19:59 | 37.87881 | -93.35628 | 34368 ft | 186 kts | 246° |
| 2026-05-06 19:59 | 37.87330 | -93.37108 | 34655 ft | 185 kts | 246° |
| 2026-05-06 20:00 | 37.86781 | -93.38582 | 34943 ft | 184 kts | 246° |
| 2026-05-06 20:00 | 37.86233 | -93.40052 | 35135 ft | 187 kts | 246° |
| 2026-05-06 20:00 | 37.85666 | -93.41576 | 35132 ft | 196 kts | 246° |
| 2026-05-06 20:00 | 37.85072 | -93.43169 | 35135 ft | 204 kts | 246° |
| 2026-05-06 20:01 | 37.84454 | -93.44822 | 35136 ft | 211 kts | 246° |
| 2026-05-06 20:01 | 37.83824 | -93.46509 | 35137 ft | 218 kts | 246° |
| 2026-05-06 20:01 | 37.83169 | -93.48260 | 35140 ft | 223 kts | 246° |
| 2026-05-06 20:01 | 37.82499 | -93.50052 | 35140 ft | 228 kts | 246° |
| 2026-05-06 20:02 | 37.81813 | -93.51885 | 35148 ft | 232 kts | 246° |
| 2026-05-06 20:02 | 37.81116 | -93.53748 | 35148 ft | 236 kts | 246° |
| 2026-05-06 20:02 | 37.80407 | -93.55639 | 35148 ft | 240 kts | 246° |
| 2026-05-06 20:02 | 37.79689 | -93.57555 | 35148 ft | 243 kts | 246° |
| 2026-05-06 20:03 | 37.78961 | -93.59494 | 35146 ft | 245 kts | 246° |
| 2026-05-06 20:03 | 37.78227 | -93.61452 | 35145 ft | 248 kts | 246° |
| 2026-05-06 20:03 | 37.77485 | -93.63426 | 35146 ft | 250 kts | 246° |
| 2026-05-06 20:03 | 37.76738 | -93.65414 | 35148 ft | 251 kts | 246° |
| 2026-05-06 20:04 | 37.75985 | -93.67416 | 35149 ft | 253 kts | 246° |
| 2026-05-06 20:04 | 37.75226 | -93.69432 | 35144 ft | 254 kts | 246° |
| 2026-05-06 20:04 | 37.74465 | -93.71454 | 35144 ft | 255 kts | 246° |
| 2026-05-06 20:04 | 37.73710 | -93.73457 | 35145 ft | 256 kts | 246° |
| 2026-05-06 20:05 | 37.72942 | -93.75494 | 35139 ft | 257 kts | 246° |
| 2026-05-06 20:05 | 37.72171 | -93.77537 | 35138 ft | 258 kts | 246° |
| 2026-05-06 20:05 | 37.71398 | -93.79584 | 35139 ft | 258 kts | 246° |
| 2026-05-06 20:05 | 37.70623 | -93.81635 | 35143 ft | 259 kts | 246° |
| 2026-05-06 20:06 | 37.69845 | -93.83694 | 35144 ft | 260 kts | 246° |
| 2026-05-06 20:06 | 37.69066 | -93.85752 | 35144 ft | 260 kts | 246° |
| 2026-05-06 20:06 | 37.68286 | -93.87812 | 35146 ft | 260 kts | 246° |
| 2026-05-06 20:06 | 37.67504 | -93.89875 | 35145 ft | 261 kts | 246° |
| 2026-05-06 20:07 | 37.66720 | -93.91944 | 35145 ft | 261 kts | 246° |
| 2026-05-06 20:07 | 37.65936 | -93.94010 | 35146 ft | 261 kts | 246° |
| 2026-05-06 20:07 | 37.65150 | -93.96081 | 35147 ft | 261 kts | 246° |
| 2026-05-06 20:07 | 37.64377 | -93.98116 | 35130 ft | 260 kts | 245° |
| 2026-05-06 20:08 | 37.63594 | -94.00176 | 35129 ft | 260 kts | 245° |
| 2026-05-06 20:08 | 37.62806 | -94.02247 | 35129 ft | 261 kts | 245° |
| 2026-05-06 20:08 | 37.62023 | -94.04305 | 35129 ft | 261 kts | 245° |
| 2026-05-06 20:08 | 37.61237 | -94.06369 | 35128 ft | 261 kts | 245° |
| 2026-05-06 20:09 | 37.60450 | -94.08434 | 35128 ft | 261 kts | 245° |
| 2026-05-06 20:09 | 37.59662 | -94.10499 | 35129 ft | 262 kts | 245° |
| 2026-05-06 20:09 | 37.58873 | -94.12566 | 35130 ft | 262 kts | 245° |
| 2026-05-06 20:09 | 37.58082 | -94.14637 | 35132 ft | 262 kts | 245° |
| 2026-05-06 20:10 | 37.57293 | -94.16705 | 35131 ft | 262 kts | 245° |
| 2026-05-06 20:10 | 37.56502 | -94.18770 | 35131 ft | 262 kts | 245° |
| 2026-05-06 20:10 | 37.55712 | -94.20836 | 35135 ft | 262 kts | 245° |
| 2026-05-06 20:10 | 37.54929 | -94.22880 | 35135 ft | 262 kts | 245° |
| 2026-05-06 20:11 | 37.54134 | -94.24957 | 35132 ft | 262 kts | 245° |
| 2026-05-06 20:11 | 37.53292 | -94.26995 | 35133 ft | 263 kts | 243° |
| 2026-05-06 20:11 | 37.52343 | -94.28964 | 35133 ft | 264 kts | 240° |
| 2026-05-06 20:11 | 37.51288 | -94.30864 | 35133 ft | 265 kts | 238° |
| 2026-05-06 20:12 | 37.50132 | -94.32680 | 35136 ft | 267 kts | 236° |
| 2026-05-06 20:12 | 37.48875 | -94.34411 | 35136 ft | 269 kts | 233° |
| 2026-05-06 20:12 | 37.47519 | -94.36048 | 35137 ft | 271 kts | 231° |
| 2026-05-06 20:12 | 37.46080 | -94.37567 | 35139 ft | 275 kts | 228° |
| 2026-05-06 20:13 | 37.44523 | -94.38998 | 35147 ft | 278 kts | 225° |
| 2026-05-06 20:13 | 37.42873 | -94.40308 | 35137 ft | 283 kts | 223° |
| 2026-05-06 20:13 | 37.41122 | -94.41491 | 35139 ft | 288 kts | 220° |
| 2026-05-06 20:13 | 37.39281 | -94.42532 | 35087 ft | 293 kts | 217° |
| 2026-05-06 20:14 | 37.37352 | -94.43419 | 35126 ft | 298 kts | 214° |
| 2026-05-06 20:14 | 37.35332 | -94.44143 | 35127 ft | 305 kts | 211° |
| 2026-05-06 20:14 | 37.31045 | -94.45035 | 35126 ft | 321 kts | 204° |
| 2026-05-06 20:15 | 37.26489 | -94.45100 | 35113 ft | 335 kts | 198° |
| 2026-05-06 20:15 | 37.21836 | -94.44931 | 35112 ft | 334 kts | 198° |
| 2026-05-06 20:16 | 37.17175 | -94.44764 | 35116 ft | 335 kts | 198° |
| 2026-05-06 20:16 | 37.12498 | -94.44469 | 35104 ft | 344 kts | 193° |
| 2026-05-06 20:17 | 37.10088 | -94.43988 | 35106 ft | 356 kts | 189° |
| 2026-05-06 20:17 | 37.07643 | -94.43221 | 35109 ft | 369 kts | 184° |
| 2026-05-06 20:17 | 37.05178 | -94.42148 | 35111 ft | 380 kts | 180° |
| 2026-05-06 20:17 | 37.02708 | -94.40972 | 35112 ft | 379 kts | 180° |
| 2026-05-06 20:18 | 36.97764 | -94.38685 | 35118 ft | 379 kts | 181° |
| 2026-05-06 20:18 | 36.92812 | -94.36369 | 35116 ft | 380 kts | 180° |
| 2026-05-06 20:19 | 36.87889 | -94.34080 | 35101 ft | 379 kts | 180° |
| 2026-05-06 20:19 | 36.82947 | -94.31785 | 35097 ft | 379 kts | 180° |
| 2026-05-06 20:20 | 36.78005 | -94.29492 | 35098 ft | 379 kts | 180° |
| 2026-05-06 20:20 | 36.73051 | -94.27197 | 35098 ft | 380 kts | 180° |
| 2026-05-06 20:21 | 36.68924 | -94.25287 | 35092 ft | 380 kts | 180° |
| 2026-05-06 20:21 | 36.63971 | -94.22995 | 35090 ft | 378 kts | 180° |
| 2026-05-06 20:22 | 36.59028 | -94.20718 | 35090 ft | 378 kts | 180° |
| 2026-05-06 20:22 | 36.54084 | -94.18436 | 35091 ft | 379 kts | 180° |